Time;durP1;ratioP1;P1;durP2;ratioP2;P2;SDS_P1;SDS_P2;PMS_P1;PMS_P2;Temp;Humidity;BMP_temperature;BMP_pressure;BME280_temperature;BME280_humidity;BME280_pressure;Samples;Min_cycle;Max_cycle;Signal;HPM_P1;HPM_P2
2021/05/27 00:01:10;;;;;;;10.60;7.35;;;19.40;79.60;;;;;;5091207;28;20032;-59
2021/05/27 00:03:36;;;;;;;7.50;6.65;;;19.30;79.30;;;;;;5096224;28;20141;-59
2021/05/27 00:06:02;;;;;;;10.40;6.90;;;19.30;78.90;;;;;;5093993;28;20051;-59
2021/05/27 00:08:27;;;;;;;8.35;6.53;;;19.20;78.70;;;;;;5089189;28;20028;-59
2021/05/27 00:10:53;;;;;;;7.05;6.20;;;19.20;78.60;;;;;;5090352;28;20440;-59
2021/05/27 00:13:19;;;;;;;7.78;6.38;;;19.20;78.30;;;;;;5097737;28;20077;-59
2021/05/27 00:15:44;;;;;;;6.97;5.85;;;19.20;78.30;;;;;;5092219;28;20480;-59
2021/05/27 00:18:10;;;;;;;7.45;5.68;;;19.20;78.00;;;;;;5095793;28;20396;-59
2021/05/27 00:20:36;;;;;;;7.15;5.35;;;19.10;77.80;;;;;;5090227;28;20024;-58
2021/05/27 00:23:02;;;;;;;6.00;5.28;;;19.10;77.60;;;;;;5088898;28;20028;-59
2021/05/27 00:25:28;;;;;;;7.45;5.85;;;19.20;77.70;;;;;;5094907;28;20532;-58
2021/05/27 00:27:54;;;;;;;7.05;5.03;;;19.10;77.50;;;;;;5095824;28;20024;-59
2021/05/27 00:30:20;;;;;;;6.70;5.43;;;19.20;77.80;;;;;;5088100;28;20031;-58
2021/05/27 00:32:46;;;;;;;6.95;5.30;;;19.10;77.70;;;;;;5088474;28;20497;-59
2021/05/27 00:35:13;;;;;;;7.25;5.25;;;19.10;77.60;;;;;;5094393;28;20028;-59
2021/05/27 00:37:39;;;;;;;6.28;5.68;;;19.10;77.80;;;;;;5095145;28;20050;-59
2021/05/27 00:40:06;;;;;;;7.68;6.05;;;19.10;77.60;;;;;;5088775;28;20036;-59
2021/05/27 00:42:32;;;;;;;6.85;5.88;;;19.10;77.60;;;;;;5093456;28;20028;-59
2021/05/27 00:45:12;;;;;;;8.25;5.78;;;19.00;77.60;;;;;;5088172;28;20036;-59
2021/05/27 00:47:39;;;;;;;7.97;6.13;;;19.00;77.60;;;;;;5087095;28;20084;-59
2021/05/27 00:50:07;;;;;;;6.80;5.22;;;18.90;77.50;;;;;;5083553;28;20141;-58
2021/05/27 00:52:33;;;;;;;7.53;5.50;;;18.80;77.40;;;;;;5095163;28;20031;-59
2021/05/27 00:55:00;;;;;;;7.18;5.63;;;18.80;77.50;;;;;;5094404;28;20024;-58
2021/05/27 00:57:26;;;;;;;6.53;5.47;;;18.80;77.40;;;;;;5086722;28;20479;-58
2021/05/27 00:59:51;;;;;;;8.55;5.63;;;18.80;77.50;;;;;;5086327;28;20078;-58
2021/05/27 01:02:17;;;;;;;7.18;5.75;;;18.80;77.70;;;;;;5094824;28;20034;-59
2021/05/27 01:04:43;;;;;;;7.43;5.50;;;18.80;77.60;;;;;;5085039;28;20020;-59
2021/05/27 01:07:09;;;;;;;6.93;5.60;;;18.80;77.30;;;;;;5077885;28;20393;-58
2021/05/27 01:09:34;;;;;;;6.57;5.40;;;18.80;77.30;;;;;;5091564;28;20051;-58
2021/05/27 01:12:00;;;;;;;7.90;4.70;;;18.80;77.20;;;;;;5094042;28;20076;-59
2021/05/27 01:17:10;;;;;;;5.85;4.78;;;18.80;77.20;;;;;;5081995;28;20094;-59
2021/05/27 01:19:36;;;;;;;6.63;4.70;;;18.70;77.10;;;;;;5094698;28;20372;-58
2021/05/27 01:22:01;;;;;;;6.15;4.72;;;18.80;77.50;;;;;;5088682;28;20024;-58
2021/05/27 01:24:27;;;;;;;5.82;4.53;;;18.80;77.20;;;;;;5085312;28;20028;-58
2021/05/27 01:26:53;;;;;;;7.05;4.80;;;18.70;77.10;;;;;;5092346;28;20032;-59
2021/05/27 01:29:18;;;;;;;7.57;5.32;;;18.70;77.00;;;;;;5093449;28;20032;-58
2021/05/27 01:31:44;;;;;;;6.80;4.90;;;18.70;77.10;;;;;;5091644;28;20024;-59
2021/05/27 01:34:11;;;;;;;6.43;4.72;;;18.70;77.20;;;;;;5093578;28;20441;-59
2021/05/27 01:36:42;;;;;;;7.00;4.85;;;18.70;77.40;;;;;;5093033;28;20024;-58
2021/05/27 01:39:09;;;;;;;6.43;5.40;;;18.70;77.40;;;;;;5082241;28;20366;-59
2021/05/27 01:41:35;;;;;;;7.65;5.25;;;18.60;77.40;;;;;;5088294;28;20028;-58
2021/05/27 01:44:01;;;;;;;5.15;4.65;;;18.60;77.70;;;;;;5094456;28;20072;-59
2021/05/27 01:46:26;;;;;;;6.38;4.72;;;18.60;77.70;;;;;;5093220;28;20122;-59
2021/05/27 01:48:52;;;;;;;5.38;4.75;;;18.60;78.00;;;;;;5092856;28;20032;-58
2021/05/27 01:51:18;;;;;;;5.63;4.93;;;18.50;78.00;;;;;;5092522;28;20043;-58
2021/05/27 01:53:43;;;;;;;7.43;4.95;;;18.60;78.10;;;;;;5094351;28;20016;-59
2021/05/27 01:56:09;;;;;;;5.68;4.60;;;18.60;78.90;;;;;;5089843;28;20055;-58
2021/05/27 01:58:35;;;;;;;5.72;4.75;;;18.60;78.50;;;;;;5083724;28;20036;-59
2021/05/27 02:01:00;;;;;;;5.80;4.38;;;18.60;78.60;;;;;;5084707;28;20035;-58
2021/05/27 02:03:26;;;;;;;6.00;5.05;;;18.60;78.70;;;;;;5093716;28;20085;-58
2021/05/27 02:05:51;;;;;;;6.22;4.65;;;18.60;78.60;;;;;;5092861;28;20030;-59
2021/05/27 02:08:20;;;;;;;5.22;4.72;;;18.60;79.20;;;;;;5093041;28;20024;-59
2021/05/27 02:10:46;;;;;;;6.43;4.90;;;18.60;78.60;;;;;;5093859;28;20020;-59
2021/05/27 02:13:11;;;;;;;6.63;4.78;;;18.60;78.80;;;;;;5093658;28;20042;-59
2021/05/27 02:15:38;;;;;;;6.80;4.63;;;18.60;78.80;;;;;;5086647;28;20483;-59
2021/05/27 02:18:04;;;;;;;4.97;4.20;;;18.60;78.90;;;;;;5093672;28;20257;-59
2021/05/27 02:20:30;;;;;;;4.88;4.38;;;18.70;79.00;;;;;;5090534;28;20049;-58
2021/05/27 02:22:55;;;;;;;5.13;4.38;;;18.70;79.00;;;;;;5093554;28;20111;-58
2021/05/27 02:25:21;;;;;;;5.70;4.05;;;18.70;79.10;;;;;;5088158;28;20407;-59
2021/05/27 02:27:47;;;;;;;5.68;4.50;;;18.70;79.10;;;;;;5093148;28;20554;-58
2021/05/27 02:30:13;;;;;;;7.13;4.70;;;18.70;79.10;;;;;;5091493;28;20048;-59
2021/05/27 02:32:38;;;;;;;8.15;4.70;;;18.80;79.10;;;;;;5086390;28;20028;-58
2021/05/27 02:35:05;;;;;;;6.20;4.40;;;18.80;79.20;;;;;;5090727;28;20024;-59
2021/05/27 02:37:30;;;;;;;6.65;4.80;;;18.80;79.30;;;;;;5089340;28;20028;-58
2021/05/27 02:39:56;;;;;;;6.32;4.30;;;18.90;79.30;;;;;;5084332;28;20105;-59
2021/05/27 02:42:22;;;;;;;4.22;3.83;;;18.90;79.30;;;;;;5082967;28;20159;-59
2021/05/27 02:44:48;;;;;;;5.18;3.92;;;18.90;79.20;;;;;;5086603;28;20353;-59
2021/05/27 02:47:14;;;;;;;5.30;4.50;;;19.00;79.80;;;;;;5090301;28;20024;-59
2021/05/27 02:49:40;;;;;;;5.05;4.32;;;19.10;79.10;;;;;;5086858;28;20027;-59
2021/05/27 02:52:05;;;;;;;8.13;4.85;;;19.10;78.90;;;;;;5093078;28;20020;-59
2021/05/27 02:54:31;;;;;;;4.43;4.00;;;19.10;78.90;;;;;;5093243;28;20027;-58
2021/05/27 02:57:00;;;;;;;5.35;4.43;;;19.20;78.80;;;;;;5093023;28;20035;-58
2021/05/27 02:59:28;;;;;;;6.45;4.72;;;19.30;78.60;;;;;;5089113;28;20380;-59
2021/05/27 03:01:54;;;;;;;5.00;4.45;;;19.30;78.20;;;;;;5092283;28;20165;-59
2021/05/27 03:04:20;;;;;;;5.63;4.10;;;19.30;78.20;;;;;;5091962;28;20106;-59
2021/05/27 03:06:46;;;;;;;4.82;4.30;;;19.40;78.10;;;;;;5087523;28;20441;-59
2021/05/27 03:09:12;;;;;;;5.07;4.43;;;19.40;78.00;;;;;;5085700;28;20025;-59
2021/05/27 03:11:38;;;;;;;4.68;4.18;;;19.40;78.10;;;;;;5093009;28;20024;-58
2021/05/27 03:14:04;;;;;;;5.70;4.28;;;19.50;78.10;;;;;;5086824;28;20028;-59
2021/05/27 03:16:30;;;;;;;6.03;4.40;;;19.50;78.20;;;;;;5089689;28;20364;-59
2021/05/27 03:18:56;;;;;;;5.07;4.55;;;19.50;78.10;;;;;;5091963;28;20029;-58
2021/05/27 03:21:21;;;;;;;6.55;4.40;;;19.60;78.10;;;;;;5077132;28;20452;-59
2021/05/27 03:23:47;;;;;;;5.70;4.50;;;19.60;78.30;;;;;;5076694;28;20021;-58
2021/05/27 03:26:14;;;;;;;4.72;3.97;;;19.60;78.20;;;;;;5075500;28;20032;-59
2021/05/27 03:28:40;;;;;;;6.25;4.13;;;19.60;78.10;;;;;;5075518;28;20040;-59
2021/05/27 03:31:06;;;;;;;5.45;4.40;;;19.70;78.50;;;;;;5085329;28;20460;-59
2021/05/27 03:33:32;;;;;;;5.85;4.43;;;19.70;78.20;;;;;;5092640;28;20103;-58
2021/05/27 03:35:57;;;;;;;4.95;4.20;;;19.80;77.90;;;;;;5085710;28;20099;-59
2021/05/27 03:38:23;;;;;;;6.07;4.72;;;19.80;77.80;;;;;;5075980;28;20107;-58
2021/05/27 03:40:48;;;;;;;4.70;4.20;;;19.80;77.90;;;;;;5092090;28;20032;-59
2021/05/27 03:43:14;;;;;;;7.13;4.45;;;19.90;77.70;;;;;;5077272;28;20043;-59
2021/05/27 03:45:40;;;;;;;6.45;4.40;;;19.90;77.60;;;;;;5078316;28;20090;-59
2021/05/27 03:48:06;;;;;;;6.13;4.78;;;20.10;78.40;;;;;;5084830;28;20495;-59
2021/05/27 03:50:32;;;;;;;5.53;4.60;;;20.30;77.50;;;;;;5090471;28;20024;-58
2021/05/27 03:53:00;;;;;;;5.47;4.53;;;20.40;76.70;;;;;;5090575;28;20039;-59
2021/05/27 03:55:26;;;;;;;5.47;4.50;;;20.50;76.40;;;;;;5092159;28;20461;-59
2021/05/27 03:57:53;;;;;;;5.30;4.40;;;20.50;76.20;;;;;;5089568;28;20388;-59
2021/05/27 04:03:07;;;;;;;5.05;4.10;;;20.40;76.20;;;;;;5091591;28;20038;-59
2021/05/27 04:08:18;;;;;;;6.60;4.95;;;20.50;76.40;;;;;;5092357;28;20576;-58
2021/05/27 04:10:45;;;;;;;5.45;4.57;;;20.50;77.20;;;;;;5089745;28;20055;-59
2021/05/27 04:13:11;;;;;;;5.00;4.50;;;20.60;76.50;;;;;;5096175;28;20016;-59
2021/05/27 04:15:38;;;;;;;5.13;4.20;;;20.70;76.30;;;;;;5087297;28;20029;-59
2021/05/27 04:18:05;;;;;;;5.47;4.20;;;20.90;77.00;;;;;;5088516;28;20252;-59
2021/05/27 04:20:32;;;;;;;5.32;4.47;;;21.30;76.20;;;;;;5089203;28;20054;-59
2021/05/27 04:22:58;;;;;;;5.57;4.50;;;21.60;74.60;;;;;;5096198;28;20059;-59
2021/05/27 04:25:25;;;;;;;5.15;4.30;;;21.80;74.10;;;;;;5095883;28;20456;-59
2021/05/27 04:27:52;;;;;;;6.78;4.32;;;22.00;73.50;;;;;;5095769;28;20100;-59
2021/05/27 04:30:19;;;;;;;4.60;4.20;;;22.20;73.40;;;;;;5094304;28;20024;-59
2021/05/27 04:33:03;;;;;;;5.40;4.22;;;22.50;73.20;;;;;;5093342;28;20035;-59
2021/05/27 04:35:33;;;;;;;5.18;3.88;;;22.90;72.50;;;;;;5093526;28;20058;-59
2021/05/27 04:38:05;;;;;;;5.07;4.00;;;23.40;72.40;;;;;;5092239;28;20170;-59
2021/05/27 04:40:31;;;;;;;4.82;3.75;;;24.10;70.50;;;;;;5092188;28;20036;-60
2021/05/27 04:42:57;;;;;;;4.28;3.75;;;24.60;68.70;;;;;;5092658;28;20028;-59
2021/05/27 04:45:23;;;;;;;4.00;3.60;;;25.10;68.20;;;;;;5093368;28;20044;-60
2021/05/27 04:47:49;;;;;;;4.00;3.60;;;25.80;66.40;;;;;;5094741;28;20111;-60
2021/05/27 04:50:15;;;;;;;4.88;3.90;;;26.50;65.40;;;;;;5085547;28;20115;-60
2021/05/27 04:52:41;;;;;;;5.25;3.97;;;27.20;64.00;;;;;;5095213;28;20044;-60
2021/05/27 04:55:09;;;;;;;4.15;3.63;;;28.10;62.30;;;;;;5091674;28;20020;-60
2021/05/27 04:57:35;;;;;;;5.00;3.83;;;28.90;60.70;;;;;;5090920;28;20069;-60
2021/05/27 05:00:02;;;;;;;4.53;3.55;;;29.70;59.20;;;;;;5091176;28;20027;-53
2021/05/27 05:02:28;;;;;;;3.50;3.20;;;30.40;58.30;;;;;;5092547;28;20460;-53
2021/05/27 05:04:53;;;;;;;3.58;3.10;;;31.00;56.00;;;;;;5089151;28;20107;-52
2021/05/27 05:07:20;;;;;;;3.45;2.90;;;31.50;54.90;;;;;;5086113;28;20079;-51
2021/05/27 05:09:46;;;;;;;3.95;3.40;;;31.90;53.40;;;;;;5086366;28;20440;-52
2021/05/27 05:12:11;;;;;;;4.20;3.45;;;32.20;51.90;;;;;;5086082;28;20055;-54
2021/05/27 05:14:37;;;;;;;4.05;3.20;;;32.30;51.30;;;;;;5088234;28;20119;-54
2021/05/27 05:17:03;;;;;;;5.78;3.70;;;32.40;50.60;;;;;;5092010;28;20457;-52
2021/05/27 05:19:28;;;;;;;3.65;3.28;;;32.50;49.70;;;;;;5085891;28;20153;-54
2021/05/27 05:21:56;;;;;;;3.70;3.30;;;32.50;49.30;;;;;;5093002;28;20047;-52
2021/05/27 05:24:22;;;;;;;4.03;3.47;;;32.30;48.80;;;;;;5088657;28;20043;-50
2021/05/27 05:26:47;;;;;;;4.43;3.47;;;31.90;49.00;;;;;;5090521;28;20028;-54
2021/05/27 05:29:13;;;;;;;4.90;3.67;;;31.40;49.30;;;;;;5077895;28;20095;-53
2021/05/27 05:31:39;;;;;;;4.75;3.78;;;30.80;50.20;;;;;;5087954;28;20553;-54
2021/05/27 05:34:04;;;;;;;6.88;3.97;;;30.10;51.40;;;;;;5086064;28;20106;-51
2021/05/27 05:36:30;;;;;;;4.03;3.50;;;29.40;52.40;;;;;;5090295;28;20055;-53
2021/05/27 05:38:56;;;;;;;5.00;4.55;;;28.80;53.20;;;;;;5087086;28;20035;-52
2021/05/27 05:41:22;;;;;;;4.97;3.67;;;28.10;54.10;;;;;;5088375;28;20389;-51
2021/05/27 05:43:47;;;;;;;5.32;3.95;;;27.60;54.90;;;;;;5083573;28;20388;-52
2021/05/27 05:46:13;;;;;;;4.63;4.22;;;27.10;56.20;;;;;;5089702;28;20044;-50
2021/05/27 05:48:39;;;;;;;4.65;4.10;;;26.80;56.80;;;;;;5084094;28;20398;-53
2021/05/27 05:51:07;;;;;;;4.35;3.95;;;26.50;57.40;;;;;;5082809;28;20069;-51
2021/05/27 05:53:34;;;;;;;4.47;4.07;;;26.30;57.90;;;;;;5083036;28;20378;-51
2021/05/27 05:56:00;;;;;;;5.95;4.57;;;26.10;58.10;;;;;;5077847;28;20027;-49
2021/05/27 05:58:26;;;;;;;4.63;3.90;;;25.90;58.40;;;;;;5083976;28;20043;-50
2021/05/27 06:00:53;;;;;;;4.70;4.10;;;25.80;58.40;;;;;;5079853;28;20384;-51
2021/05/27 06:03:19;;;;;;;4.90;4.40;;;25.60;58.80;;;;;;5080381;28;20036;-51
2021/05/27 06:05:45;;;;;;;6.28;4.47;;;25.40;59.00;;;;;;5082041;28;20040;-53
2021/05/27 06:08:11;;;;;;;5.15;4.65;;;25.30;59.40;;;;;;5077947;28;20388;-55
2021/05/27 06:10:37;;;;;;;5.45;4.95;;;25.20;59.40;;;;;;5086545;28;20040;-53
2021/05/27 06:13:03;;;;;;;7.07;4.80;;;25.10;59.80;;;;;;5086584;28;20562;-52
2021/05/27 06:15:30;;;;;;;6.55;5.57;;;25.00;60.50;;;;;;5073467;28;20032;-50
2021/05/27 06:17:57;;;;;;;6.85;5.85;;;25.00;60.60;;;;;;5082006;28;20396;-50
2021/05/27 06:20:23;;;;;;;7.55;6.30;;;24.90;60.80;;;;;;5083975;28;20543;-49
2021/05/27 06:22:52;;;;;;;6.72;5.50;;;24.90;60.70;;;;;;5081057;28;20037;-54
2021/05/27 06:25:19;;;;;;;6.57;5.97;;;24.80;60.90;;;;;;5081341;28;21004;-51
2021/05/27 06:27:45;;;;;;;6.18;5.57;;;24.70;61.00;;;;;;5081256;28;20043;-52
2021/05/27 06:30:11;;;;;;;7.47;5.57;;;24.70;61.50;;;;;;5082770;28;20051;-51
2021/05/27 06:32:37;;;;;;;6.43;5.82;;;24.60;61.80;;;;;;5080691;28;20109;-49
2021/05/27 06:35:09;;;;;;;7.60;5.80;;;24.50;61.90;;;;;;5082859;28;20115;-52
2021/05/27 06:37:41;;;;;;;9.38;6.85;;;24.40;62.70;;;;;;5082917;28;20036;-54
2021/05/27 06:40:15;;;;;;;7.05;6.35;;;24.30;62.90;;;;;;5082396;28;20036;-55
2021/05/27 06:42:41;;;;;;;7.40;6.70;;;24.20;62.90;;;;;;5080877;28;20551;-58
2021/05/27 06:45:08;;;;;;;7.50;6.80;;;24.10;63.30;;;;;;5075590;28;20058;-53
2021/05/27 06:47:34;;;;;;;8.00;7.20;;;24.10;64.00;;;;;;5077739;28;20425;-51
2021/05/27 06:49:59;;;;;;;8.88;7.68;;;24.00;64.40;;;;;;5079678;28;20020;-52
2021/05/27 06:52:25;;;;;;;8.57;7.45;;;24.00;64.50;;;;;;5082978;28;20031;-51
2021/05/27 06:54:52;;;;;;;8.18;7.38;;;23.90;65.00;;;;;;5077786;28;20802;-52
2021/05/27 06:57:18;;;;;;;8.48;7.38;;;23.90;65.30;;;;;;5078349;28;20056;-52
2021/05/27 06:59:43;;;;;;;8.20;7.20;;;23.90;65.30;;;;;;5078461;28;20060;-51
2021/05/27 07:02:09;;;;;;;9.65;8.65;;;23.80;65.00;;;;;;5079082;28;20427;-51
2021/05/27 07:04:35;;;;;;;8.13;7.25;;;23.80;65.30;;;;;;5083154;28;20032;-53
2021/05/27 07:07:00;;;;;;;8.60;7.80;;;23.80;65.60;;;;;;5064000;28;20071;-53
2021/05/27 07:09:26;;;;;;;9.02;8.07;;;23.70;65.60;;;;;;5072333;28;20126;-51
2021/05/27 07:11:51;;;;;;;11.70;8.43;;;23.70;66.50;;;;;;5070754;28;20472;-52
2021/05/27 07:14:17;;;;;;;10.45;8.77;;;23.80;66.90;;;;;;5073323;28;20499;-53
2021/05/27 07:16:43;;;;;;;10.43;9.40;;;23.80;66.60;;;;;;5075264;28;20947;-52
2021/05/27 07:19:08;;;;;;;11.77;9.25;;;23.80;66.80;;;;;;5075348;28;20028;-55
2021/05/27 07:21:34;;;;;;;8.63;7.72;;;23.80;66.70;;;;;;5072858;28;20379;-51
2021/05/27 07:24:00;;;;;;;9.55;8.55;;;23.80;67.60;;;;;;5070503;28;20035;-53
2021/05/27 07:26:26;;;;;;;9.55;8.43;;;23.90;67.80;;;;;;5066408;28;20449;-54
2021/05/27 07:28:57;;;;;;;9.68;8.68;;;23.90;67.70;;;;;;5072077;28;20916;-53
2021/05/27 07:31:22;;;;;;;8.68;7.78;;;23.80;67.40;;;;;;5065717;28;20074;-52
2021/05/27 07:33:48;;;;;;;10.10;8.63;;;23.80;67.70;;;;;;5071360;28;20039;-52
2021/05/27 07:36:14;;;;;;;9.75;8.07;;;23.80;67.90;;;;;;5077170;28;20111;-51
2021/05/27 07:38:40;;;;;;;9.52;8.50;;;23.70;68.00;;;;;;5074386;28;20028;-54
2021/05/27 07:41:06;;;;;;;10.60;8.63;;;23.70;68.10;;;;;;5078990;28;20028;-51
2021/05/27 07:43:32;;;;;;;9.63;8.00;;;23.60;68.50;;;;;;5077372;28;20119;-53
2021/05/27 07:45:58;;;;;;;8.98;8.07;;;23.60;68.90;;;;;;5075916;28;20043;-53
2021/05/27 07:48:24;;;;;;;9.20;7.70;;;23.50;69.00;;;;;;5077112;28;20489;-56
2021/05/27 07:50:49;;;;;;;8.90;8.00;;;23.40;69.40;;;;;;5072790;28;20265;-51
2021/05/27 07:53:20;;;;;;;9.90;9.00;;;23.40;69.90;;;;;;5070889;28;20043;-53
2021/05/27 07:55:46;;;;;;;10.75;8.60;;;23.50;69.90;;;;;;5064694;28;20051;-53
2021/05/27 07:58:12;;;;;;;8.77;7.88;;;23.40;69.90;;;;;;5068592;28;20039;-53
2021/05/27 08:00:38;;;;;;;8.50;7.70;;;23.40;69.90;;;;;;5070370;28;20032;-53
2021/05/27 08:03:04;;;;;;;9.65;8.23;;;23.40;70.50;;;;;;5074579;28;20032;-52
2021/05/27 08:05:30;;;;;;;9.00;8.10;;;23.40;70.40;;;;;;5079296;28;20034;-52
2021/05/27 08:07:56;;;;;;;8.27;7.47;;;23.40;70.40;;;;;;5074448;28;20031;-50
2021/05/27 08:10:22;;;;;;;8.15;7.35;;;23.40;70.40;;;;;;5078663;28;20382;-51
2021/05/27 08:12:47;;;;;;;9.25;6.90;;;23.40;70.60;;;;;;5079111;28;20028;-53
2021/05/27 08:15:13;;;;;;;8.52;7.72;;;23.40;70.80;;;;;;5076643;28;20046;-53
2021/05/27 08:17:39;;;;;;;7.75;6.85;;;23.40;70.30;;;;;;5076216;28;20085;-49
2021/05/27 08:20:09;;;;;;;6.93;6.22;;;23.30;70.50;;;;;;5078820;28;20492;-50
2021/05/27 08:22:34;;;;;;;7.97;6.38;;;23.40;70.50;;;;;;5074755;28;20036;-53
2021/05/27 08:25:02;;;;;;;8.55;6.68;;;23.40;71.00;;;;;;5078877;28;20377;-53
2021/05/27 08:27:28;;;;;;;6.90;5.82;;;23.40;71.10;;;;;;5079836;28;20121;-52
2021/05/27 08:29:53;;;;;;;6.63;6.00;;;23.50;71.30;;;;;;5063688;28;20787;-52
2021/05/27 08:32:19;;;;;;;7.32;6.40;;;23.50;71.00;;;;;;5074522;28;20073;-52
2021/05/27 08:34:45;;;;;;;6.88;5.47;;;23.60;71.10;;;;;;5079576;28;20033;-54
2021/05/27 08:37:10;;;;;;;5.95;5.35;;;23.60;70.70;;;;;;5076309;28;20043;-47
2021/05/27 08:39:36;;;;;;;7.53;5.60;;;23.60;70.50;;;;;;5076001;28;20036;-51
2021/05/27 08:42:02;;;;;;;7.20;6.35;;;23.60;70.40;;;;;;5069526;28;20036;-48
2021/05/27 08:44:28;;;;;;;7.03;5.50;;;23.60;70.90;;;;;;5071451;28;20036;-46
2021/05/27 08:46:54;;;;;;;7.22;6.28;;;23.60;70.80;;;;;;5053723;28;20078;-46
2021/05/27 08:49:20;;;;;;;7.85;5.40;;;23.60;71.20;;;;;;5074348;28;20036;-53
2021/05/27 08:51:46;;;;;;;6.25;5.65;;;23.70;71.00;;;;;;5069678;28;20020;-54
2021/05/27 08:54:12;;;;;;;6.28;5.50;;;23.70;71.20;;;;;;5070193;28;20416;-51
2021/05/27 08:56:38;;;;;;;6.38;5.50;;;23.70;71.00;;;;;;5078364;28;20020;-54
2021/05/27 08:59:03;;;;;;;6.35;5.72;;;23.70;71.00;;;;;;5077121;28;20035;-51
2021/05/27 09:01:29;;;;;;;5.78;5.20;;;23.70;71.10;;;;;;5072863;28;20028;-55
2021/05/27 09:03:55;;;;;;;6.00;5.35;;;23.60;71.20;;;;;;5073888;28;20162;-54
2021/05/27 09:06:25;;;;;;;5.70;5.15;;;23.60;71.50;;;;;;5076845;28;20038;-54
2021/05/27 09:09:09;;;;;;;6.25;5.05;;;23.60;71.60;;;;;;5070488;28;20028;-51
2021/05/27 09:11:39;;;;;;;6.03;5.10;;;23.60;71.60;;;;;;5077984;28;20122;-52
2021/05/27 09:14:05;;;;;;;6.60;5.05;;;23.60;72.30;;;;;;5067309;28;20676;-53
2021/05/27 09:16:30;;;;;;;5.63;5.13;;;23.70;71.60;;;;;;5071056;28;20142;-52
2021/05/27 09:19:16;;;;;;;5.93;5.07;;;23.70;71.00;;;;;;5071067;28;20096;-53
2021/05/27 09:21:42;;;;;;;9.65;5.53;;;23.80;70.90;;;;;;5073918;28;20155;-49
2021/05/27 09:24:08;;;;;;;6.05;4.38;;;23.80;71.50;;;;;;5071388;28;20047;-54
2021/05/27 09:26:55;;;;;;;5.43;4.82;;;23.80;71.20;;;;;;5063835;28;20029;-52
2021/05/27 09:29:22;;;;;;;4.90;4.40;;;23.80;70.70;;;;;;5073909;28;20039;-53
2021/05/27 09:32:06;;;;;;;5.03;4.60;;;23.80;70.70;;;;;;5072298;28;20029;-54
2021/05/27 09:34:44;;;;;;;5.40;4.88;;;23.80;70.60;;;;;;5076349;28;20027;-52
2021/05/27 09:37:22;;;;;;;5.90;5.40;;;23.70;70.70;;;;;;5066105;28;20036;-53
2021/05/27 09:39:49;;;;;;;8.23;5.20;;;23.70;71.30;;;;;;5068572;28;20175;-52
2021/05/27 09:42:15;;;;;;;5.72;5.20;;;23.70;71.30;;;;;;5070222;28;20093;-53
2021/05/27 09:44:41;;;;;;;5.13;4.63;;;23.70;71.40;;;;;;5075173;28;20024;-53
2021/05/27 09:47:07;;;;;;;5.28;4.78;;;23.80;71.40;;;;;;5073911;28;20046;-50
2021/05/27 09:49:34;;;;;;;6.28;4.82;;;23.80;70.80;;;;;;5067361;28;20389;-52
2021/05/27 09:52:18;;;;;;;5.75;5.05;;;23.80;71.00;;;;;;5063365;28;20028;-51
2021/05/27 09:54:55;;;;;;;5.43;4.93;;;23.80;70.80;;;;;;5072368;28;20416;-49
2021/05/27 09:57:25;;;;;;;5.75;4.85;;;23.90;70.40;;;;;;5069326;28;20127;-52
2021/05/27 09:59:52;;;;;;;5.20;4.70;;;23.90;70.40;;;;;;5070168;28;20162;-52
2021/05/27 10:02:19;;;;;;;5.00;4.50;;;23.90;70.00;;;;;;5071323;28;20092;-50
2021/05/27 10:04:56;;;;;;;14.93;5.07;;;23.90;70.30;;;;;;5074074;28;20066;-52
2021/05/27 10:07:36;;;;;;;5.75;5.15;;;24.00;70.70;;;;;;5071261;28;20480;-50
2021/05/27 10:10:04;;;;;;;4.95;4.43;;;24.00;70.50;;;;;;5080247;28;20028;-53
2021/05/27 10:12:42;;;;;;;5.20;4.32;;;24.10;70.30;;;;;;5078177;28;20020;-49
2021/05/27 10:15:11;;;;;;;5.13;4.40;;;24.10;70.30;;;;;;5077572;28;20461;-49
2021/05/27 10:17:37;;;;;;;5.30;4.28;;;24.10;70.10;;;;;;5083351;28;20028;-49
2021/05/27 10:20:09;;;;;;;5.68;4.45;;;24.00;69.60;;;;;;5078233;28;20115;-49
2021/05/27 10:22:35;;;;;;;4.68;4.18;;;24.00;69.30;;;;;;5080392;28;20237;-49
2021/05/27 10:25:04;;;;;;;4.55;4.07;;;23.90;69.30;;;;;;5078143;28;20119;-51
2021/05/27 10:27:30;;;;;;;5.00;4.28;;;23.80;69.50;;;;;;5070789;28;20039;-53
2021/05/27 10:29:57;;;;;;;6.35;4.47;;;23.80;69.30;;;;;;5076378;28;20028;-54
2021/05/27 10:32:24;;;;;;;4.75;4.35;;;23.80;69.70;;;;;;5075306;28;20043;-48
2021/05/27 10:34:50;;;;;;;5.70;5.00;;;23.80;69.90;;;;;;5074782;28;20048;-52
2021/05/27 10:37:46;;;;;;;5.25;4.30;;;23.80;70.10;;;;;;5073053;28;20576;-57
2021/05/27 10:40:32;;;;;;;5.15;3.90;;;23.90;70.50;;;;;;5068737;28;20394;-53
2021/05/27 10:43:04;;;;;;;5.45;3.97;;;23.90;70.00;;;;;;5075876;28;20021;-54
2021/05/27 10:45:32;;;;;;;6.28;4.40;;;23.90;69.80;;;;;;5074589;28;20106;-49
2021/05/27 10:48:13;;;;;;;4.38;3.70;;;23.90;69.70;;;;;;5082750;28;20028;-53
2021/05/27 10:50:48;;;;;;;4.85;3.92;;;24.00;69.90;;;;;;5080030;28;20033;-50
2021/05/27 10:53:33;;;;;;;4.65;4.00;;;24.00;70.00;;;;;;5074832;28;21264;-51
2021/05/27 10:55:59;;;;;;;4.63;4.07;;;23.90;70.40;;;;;;5077266;28;20027;-55
2021/05/27 10:58:51;;;;;;;5.05;3.78;;;23.90;70.30;;;;;;5077980;28;20406;-53
2021/05/27 11:01:41;;;;;;;4.30;3.90;;;23.80;71.50;;;;;;5070817;28;20040;-55
2021/05/27 11:04:28;;;;;;;5.10;3.92;;;23.80;71.30;;;;;;5078071;28;20361;-53
2021/05/27 11:07:20;;;;;;;5.32;3.60;;;23.70;70.90;;;;;;5070966;28;20122;-52
2021/05/27 11:09:48;;;;;;;4.43;3.70;;;23.70;70.90;;;;;;5077325;28;20102;-54
2021/05/27 11:12:21;;;;;;;4.75;3.85;;;23.70;71.30;;;;;;5074408;28;20040;-51
2021/05/27 11:15:10;;;;;;;4.70;3.95;;;23.70;71.60;;;;;;5076200;28;20055;-52
2021/05/27 11:17:36;;;;;;;4.32;3.92;;;23.70;71.30;;;;;;5076089;28;20044;-53
2021/05/27 11:20:10;;;;;;;4.45;4.05;;;23.70;71.50;;;;;;5078041;28;20063;-53
2021/05/27 11:25:12;;;;;;;5.45;4.00;;;23.70;70.50;;;;;;5075603;28;20027;-49
2021/05/27 11:27:55;;;;;;;3.67;3.33;;;23.70;70.30;;;;;;5075616;28;20047;-49
2021/05/27 11:30:23;;;;;;;4.20;3.80;;;23.70;70.90;;;;;;5074756;28;20479;-52
2021/05/27 11:33:02;;;;;;;4.22;3.83;;;23.70;71.00;;;;;;5077913;28;20024;-53
2021/05/27 11:35:39;;;;;;;4.22;3.83;;;23.70;71.00;;;;;;5082938;28;20422;-56
2021/05/27 11:38:10;;;;;;;3.95;3.55;;;23.70;71.00;;;;;;5073286;28;20036;-54
2021/05/27 11:40:44;;;;;;;3.55;3.25;;;23.70;70.70;;;;;;5072016;28;20040;-56
2021/05/27 11:43:10;;;;;;;5.35;4.07;;;23.70;70.10;;;;;;5069488;28;20099;-54
2021/05/27 11:45:40;;;;;;;4.30;3.90;;;23.80;70.70;;;;;;5077733;28;21399;-50
2021/05/27 11:48:12;;;;;;;7.00;3.60;;;23.80;71.70;;;;;;5076371;28;20116;-55
2021/05/27 11:50:38;;;;;;;4.35;3.95;;;23.80;71.70;;;;;;5076667;28;20024;-54
2021/05/27 11:53:04;;;;;;;4.13;3.72;;;23.90;72.00;;;;;;5071413;28;20383;-51
2021/05/27 11:55:31;;;;;;;5.85;3.97;;;23.90;72.30;;;;;;5073400;28;20032;-54
2021/05/27 11:57:57;;;;;;;4.25;3.72;;;23.90;72.30;;;;;;5076213;28;20025;-54
2021/05/27 12:00:23;;;;;;;4.25;3.85;;;23.90;72.10;;;;;;5074556;28;20063;-54
2021/05/27 12:02:51;;;;;;;5.10;3.38;;;24.00;71.30;;;;;;5073644;28;20069;-50
2021/05/27 12:05:29;;;;;;;5.07;3.90;;;24.00;70.90;;;;;;5073313;28;20048;-53
2021/05/27 12:08:02;;;;;;;4.95;4.00;;;24.00;70.70;;;;;;5072191;28;20032;-51
2021/05/27 12:10:31;;;;;;;5.40;3.72;;;24.00;70.10;;;;;;5074319;28;20369;-51
2021/05/27 12:12:58;;;;;;;7.00;4.45;;;24.00;69.90;;;;;;5077271;28;20063;-52
2021/05/27 12:15:25;;;;;;;6.30;4.60;;;24.00;70.20;;;;;;5072607;28;20028;-51
2021/05/27 12:17:53;;;;;;;8.90;6.40;;;24.00;70.70;;;;;;5073476;28;20035;-49
2021/05/27 12:20:26;;;;;;;7.57;6.13;;;23.90;71.90;;;;;;5072279;28;20040;-54
2021/05/27 12:23:08;;;;;;;7.68;6.47;;;23.90;72.70;;;;;;5076310;28;20024;-54
2021/05/27 12:25:37;;;;;;;10.70;7.38;;;23.80;73.10;;;;;;5078509;28;20484;-55
2021/05/27 12:28:07;;;;;;;9.50;7.28;;;23.80;74.10;;;;;;5076927;28;20032;-53
2021/05/27 12:30:35;;;;;;;11.55;8.85;;;23.70;74.40;;;;;;5077647;28;20046;-53
2021/05/27 12:33:03;;;;;;;10.40;9.25;;;23.70;75.70;;;;;;5071833;28;20036;-55
2021/05/27 12:35:32;;;;;;;9.68;8.55;;;23.60;76.70;;;;;;5071402;28;22790;-53
2021/05/27 12:37:59;;;;;;;7.70;6.60;;;23.60;77.70;;;;;;5071470;28;20030;-51
2021/05/27 12:40:33;;;;;;;7.82;6.15;;;23.60;76.40;;;;;;5073255;28;20028;-51
2021/05/27 12:43:01;;;;;;;6.43;5.65;;;23.50;75.60;;;;;;5077713;28;20036;-53
2021/05/27 12:45:28;;;;;;;6.45;5.57;;;23.60;74.90;;;;;;5076081;28;20139;-55
2021/05/27 12:48:03;;;;;;;5.88;5.30;;;23.60;74.90;;;;;;5071787;28;20735;-54
2021/05/27 12:50:29;;;;;;;6.18;5.57;;;23.60;74.60;;;;;;5072384;28;20556;-54
2021/05/27 12:52:55;;;;;;;6.60;5.97;;;23.70;74.90;;;;;;5067891;28;20028;-54
2021/05/27 12:55:26;;;;;;;6.57;5.00;;;23.70;74.90;;;;;;5068694;28;20111;-53
2021/05/27 12:57:59;;;;;;;7.55;5.82;;;23.80;74.50;;;;;;5072716;28;20051;-54
2021/05/27 13:00:27;;;;;;;7.15;5.82;;;23.80;74.60;;;;;;5073506;28;20046;-51